createdAt,value
2017-09-15T00:00:00.832Z,21.56
2017-09-15T00:02:28.412Z,21.45
2017-09-15T00:04:55.922Z,21.34
2017-09-15T00:07:23.488Z,21.25
2017-09-15T00:09:51.084Z,21.33
2017-09-15T00:12:18.628Z,21.35
2017-09-15T00:14:46.190Z,21.41
2017-09-15T00:17:13.818Z,21.25
2017-09-15T00:19:41.404Z,21.28
2017-09-15T00:22:08.952Z,21.29
2017-09-15T00:24:36.527Z,21.24
2017-09-15T00:27:04.063Z,21.23
2017-09-15T00:29:31.667Z,21.28
2017-09-15T00:31:59.621Z,21.09
2017-09-15T00:34:27.143Z,21.28
2017-09-15T00:36:54.676Z,21.30
2017-09-15T00:39:22.307Z,21.06
2017-09-15T00:41:49.858Z,20.88
2017-09-15T00:44:17.418Z,20.80
2017-09-15T00:46:45.055Z,20.85
2017-09-15T00:49:12.600Z,21.01
2017-09-15T00:51:40.205Z,20.84
2017-09-15T00:54:07.789Z,20.78
2017-09-15T00:56:35.337Z,20.83
2017-09-15T00:59:03.267Z,20.87
2017-09-15T01:01:30.857Z,20.83
2017-09-15T01:03:58.462Z,20.80
2017-09-15T01:06:26.029Z,20.71
2017-09-15T01:08:53.606Z,20.73
2017-09-15T01:11:21.177Z,20.68
2017-09-15T01:13:48.710Z,20.69
2017-09-15T01:16:16.496Z,20.70
2017-09-15T01:18:44.075Z,20.53
2017-09-15T01:21:11.748Z,20.68
2017-09-15T01:23:39.371Z,20.68
2017-09-15T01:26:06.921Z,20.62
2017-09-15T01:28:34.495Z,20.52
2017-09-15T01:31:02.077Z,20.40
2017-09-15T01:33:29.652Z,20.30
2017-09-15T01:35:57.213Z,20.32
2017-09-15T01:38:24.800Z,20.37
2017-09-15T01:40:52.386Z,20.47
2017-09-15T01:43:19.908Z,20.40
2017-09-15T01:45:47.498Z,20.30
2017-09-15T01:48:15.041Z,20.19
2017-09-15T01:50:42.566Z,20.05
2017-09-15T01:53:10.118Z,20.12
2017-09-15T01:55:37.636Z,20.25
2017-09-15T01:58:05.217Z,20.38
2017-09-15T02:00:32.830Z,20.08
2017-09-15T02:03:00.416Z,20.11
2017-09-15T02:05:28.850Z,20.04
2017-09-15T02:07:56.438Z,19.93
2017-09-15T02:10:24.033Z,19.82
2017-09-15T02:12:51.581Z,19.80
2017-09-15T02:15:19.175Z,19.83
2017-09-15T02:17:47.021Z,19.82
2017-09-15T02:20:14.634Z,19.78
2017-09-15T02:22:42.209Z,19.73
2017-09-15T02:25:09.950Z,19.70
2017-09-15T02:27:37.470Z,19.79
2017-09-15T02:30:06.363Z,19.71
2017-09-15T02:32:34.128Z,19.74
2017-09-15T02:35:01.660Z,19.61
2017-09-15T02:37:29.295Z,19.59
2017-09-15T02:39:56.897Z,19.52
2017-09-15T02:42:24.479Z,19.78
2017-09-15T02:44:52.070Z,19.73
2017-09-15T02:47:19.675Z,19.68
2017-09-15T02:49:47.242Z,19.67
2017-09-15T02:52:14.908Z,19.67
2017-09-15T02:54:42.461Z,19.71
2017-09-15T02:57:10.039Z,19.56
2017-09-15T02:59:37.615Z,19.55
2017-09-15T03:02:05.227Z,19.66
2017-09-15T03:04:32.742Z,19.59
2017-09-15T03:07:00.508Z,19.65
2017-09-15T03:09:28.074Z,19.60
2017-09-15T03:11:55.598Z,19.50
2017-09-15T03:14:23.133Z,19.44
2017-09-15T03:16:50.749Z,19.53
2017-09-15T03:19:18.334Z,19.47
2017-09-15T03:21:45.938Z,19.46
2017-09-15T03:24:13.544Z,19.51
2017-09-15T03:26:41.113Z,19.63
2017-09-15T03:29:08.633Z,19.52
2017-09-15T03:31:36.219Z,19.32
2017-09-15T03:34:04.025Z,19.28
2017-09-15T03:36:31.553Z,19.20
2017-09-15T03:38:59.140Z,19.13
2017-09-15T03:41:26.708Z,19.18
2017-09-15T03:43:54.291Z,19.12
2017-09-15T03:46:21.908Z,19.25
2017-09-15T03:48:49.464Z,19.10
2017-09-15T03:51:17.062Z,19.06
2017-09-15T03:53:44.674Z,19.00
2017-09-15T03:56:12.207Z,18.94
2017-09-15T03:58:39.731Z,18.97
2017-09-15T04:01:07.296Z,18.94
2017-09-15T04:03:34.818Z,18.93
2017-09-15T04:06:02.336Z,18.90
2017-09-15T04:08:29.975Z,18.81
2017-09-15T04:10:57.552Z,18.84
2017-09-15T04:13:25.310Z,18.84
2017-09-15T04:15:52.984Z,18.77
2017-09-15T04:18:20.593Z,18.85
2017-09-15T04:20:48.298Z,19.03
2017-09-15T04:23:15.926Z,19.23
2017-09-15T04:25:43.583Z,19.40
2017-09-15T04:28:11.314Z,20.08
2017-09-15T04:30:38.950Z,20.12
2017-09-15T04:33:07.149Z,20.53
2017-09-15T04:35:35.296Z,20.70
2017-09-15T04:38:05.051Z,20.99
2017-09-15T04:40:33.031Z,21.36
2017-09-15T04:43:02.797Z,21.71
2017-09-15T04:45:31.300Z,21.98
2017-09-15T04:48:03.741Z,22.20
2017-09-15T04:50:32.288Z,22.25
2017-09-15T04:52:59.910Z,22.41
2017-09-15T04:55:27.448Z,22.51
2017-09-15T04:57:55.021Z,23.00
2017-09-15T05:00:22.982Z,23.37
2017-09-15T05:02:50.506Z,23.35
2017-09-15T05:05:18.066Z,23.96
2017-09-15T05:07:45.655Z,23.85
2017-09-15T05:10:13.192Z,24.36
2017-09-15T05:12:40.732Z,24.90
2017-09-15T05:15:08.341Z,25.14
2017-09-15T05:17:35.875Z,25.28
2017-09-15T05:20:03.721Z,25.29
2017-09-15T05:22:31.324Z,25.66
2017-09-15T05:24:58.911Z,26.09
2017-09-15T05:27:26.917Z,27.31
2017-09-15T05:29:54.508Z,27.53
2017-09-15T05:32:22.081Z,27.57
2017-09-15T05:34:49.718Z,27.67
2017-09-15T05:37:18.254Z,27.67
2017-09-15T05:39:45.849Z,28.23
2017-09-15T05:42:17.330Z,28.13
2017-09-15T05:44:51.383Z,28.32
2017-09-15T05:47:19.087Z,27.53
2017-09-15T05:49:46.621Z,27.90
2017-09-15T05:52:14.242Z,27.77
2017-09-15T05:54:41.826Z,28.72
2017-09-15T05:57:09.470Z,29.10
2017-09-15T05:59:37.384Z,29.18
2017-09-15T06:02:04.957Z,29.63
2017-09-15T06:04:32.496Z,30.04
2017-09-15T06:07:00.041Z,29.73
2017-09-15T06:09:27.639Z,29.84
2017-09-15T06:11:55.186Z,29.71
2017-09-15T06:14:22.743Z,29.74
2017-09-15T06:16:50.323Z,30.23
2017-09-15T06:19:17.865Z,29.46
2017-09-15T06:21:45.431Z,28.93
2017-09-15T06:24:13.012Z,29.15
2017-09-15T06:26:40.828Z,29.59
2017-09-15T06:29:08.403Z,29.80
2017-09-15T06:31:36.073Z,30.16
2017-09-15T06:34:03.652Z,31.14
2017-09-15T06:36:31.379Z,31.21
2017-09-15T06:38:59.040Z,31.42
2017-09-15T06:41:27.174Z,32.00
2017-09-15T06:43:55.059Z,31.72
2017-09-15T06:46:22.662Z,31.78
2017-09-15T06:48:50.418Z,31.96
2017-09-15T06:51:17.968Z,32.35
2017-09-15T06:53:45.529Z,31.30
2017-09-15T06:56:13.080Z,30.71
2017-09-15T06:58:40.619Z,31.20
2017-09-15T07:01:08.532Z,31.50
2017-09-15T07:03:36.093Z,31.67
2017-09-15T07:06:03.658Z,31.97
2017-09-15T07:08:31.303Z,32.37
2017-09-15T07:10:59.074Z,32.54
2017-09-15T07:13:26.946Z,32.32
2017-09-15T07:15:54.813Z,32.62
2017-09-15T07:18:22.431Z,32.99
2017-09-15T07:20:50.048Z,33.03
2017-09-15T07:23:17.649Z,32.97
2017-09-15T07:25:45.243Z,33.16
2017-09-15T07:28:12.847Z,33.06
2017-09-15T07:30:40.639Z,32.46
2017-09-15T07:33:08.261Z,32.82
2017-09-15T07:35:35.796Z,33.02
2017-09-15T07:38:03.387Z,33.73
2017-09-15T07:40:30.972Z,33.34
2017-09-15T07:42:58.750Z,33.27
2017-09-15T07:45:26.382Z,33.94
2017-09-15T07:47:54.134Z,33.89
2017-09-15T07:50:21.677Z,33.81
2017-09-15T07:52:49.283Z,34.03
2017-09-15T07:55:17.070Z,34.37
2017-09-15T07:57:44.603Z,33.86
2017-09-15T08:00:12.338Z,34.34
2017-09-15T08:02:40.104Z,33.99
2017-09-15T08:05:08.870Z,33.96
2017-09-15T08:07:36.515Z,34.08
2017-09-15T08:10:04.291Z,34.86
2017-09-15T08:12:31.865Z,34.31
2017-09-15T08:14:59.468Z,34.91
2017-09-15T08:17:27.045Z,34.03
2017-09-15T08:19:54.607Z,33.98
2017-09-15T08:22:22.207Z,33.88
2017-09-15T08:24:50.039Z,34.14
2017-09-15T08:27:17.836Z,34.84
2017-09-15T08:29:45.621Z,34.36
2017-09-15T08:32:13.302Z,34.66
2017-09-15T08:34:40.837Z,35.28
2017-09-15T08:37:08.577Z,35.70
2017-09-15T08:39:36.333Z,35.21
2017-09-15T08:42:03.934Z,33.45
2017-09-15T08:44:32.224Z,34.55
2017-09-15T08:46:59.861Z,35.08
2017-09-15T08:49:27.697Z,34.64
2017-09-15T08:51:55.320Z,34.55
2017-09-15T08:54:22.953Z,35.15
2017-09-15T08:56:50.515Z,35.53
2017-09-15T08:59:18.127Z,35.18
2017-09-15T09:01:45.751Z,34.89
2017-09-15T09:04:13.395Z,34.91
2017-09-15T09:06:40.992Z,34.38
2017-09-15T09:09:08.646Z,34.50
2017-09-15T09:11:40.668Z,33.92
2017-09-15T09:14:08.377Z,34.27
2017-09-15T09:16:36.519Z,34.41
2017-09-15T09:19:07.129Z,35.28
2017-09-15T09:21:34.745Z,35.03
2017-09-15T09:24:02.294Z,35.36
2017-09-15T09:26:32.527Z,35.54
2017-09-15T09:29:00.185Z,35.28
2017-09-15T09:31:27.763Z,35.13
2017-09-15T09:33:55.376Z,33.99
2017-09-15T09:36:22.961Z,34.53
2017-09-15T09:38:50.758Z,34.86
2017-09-15T09:41:18.523Z,35.06
2017-09-15T09:43:46.934Z,34.87
2017-09-15T09:46:14.500Z,34.85
2017-09-15T09:48:42.087Z,34.80
2017-09-15T09:51:09.827Z,34.75
2017-09-15T09:53:37.559Z,34.62
2017-09-15T09:56:05.127Z,34.70
2017-09-15T09:58:32.662Z,33.78
2017-09-15T10:01:00.278Z,34.07
2017-09-15T10:03:27.867Z,34.00
2017-09-15T10:05:55.467Z,34.02
2017-09-15T10:08:23.104Z,33.65
2017-09-15T10:10:50.723Z,33.29
2017-09-15T10:13:18.255Z,33.48
2017-09-15T10:15:45.870Z,33.52
2017-09-15T10:18:13.453Z,33.72
2017-09-15T10:20:40.999Z,34.10
2017-09-15T10:23:08.610Z,34.39
2017-09-15T10:25:36.223Z,34.24
2017-09-15T10:28:03.977Z,34.10
2017-09-15T10:30:31.549Z,34.27
2017-09-15T10:32:59.156Z,34.32
2017-09-15T10:35:26.958Z,34.62
2017-09-15T10:37:55.211Z,34.62
2017-09-15T10:40:22.990Z,34.95
2017-09-15T10:42:50.547Z,34.88
2017-09-15T10:45:18.126Z,35.06
2017-09-15T10:47:45.694Z,34.66
2017-09-15T10:50:13.603Z,34.10
2017-09-15T10:52:41.179Z,34.60
2017-09-15T10:55:08.736Z,35.09
2017-09-15T10:57:41.984Z,35.01
2017-09-15T11:00:13.521Z,35.04
2017-09-15T11:02:41.273Z,35.09
2017-09-15T11:05:09.022Z,35.27
2017-09-15T11:07:37.566Z,35.20
2017-09-15T11:10:05.146Z,35.28
2017-09-15T11:12:32.740Z,34.84
2017-09-15T11:15:00.335Z,34.96
2017-09-15T11:17:28.122Z,34.71
2017-09-15T11:19:55.741Z,34.98
2017-09-15T11:22:23.339Z,34.75
2017-09-15T11:24:50.873Z,34.79
2017-09-15T11:27:18.476Z,34.76
2017-09-15T11:29:46.038Z,34.93
2017-09-15T11:32:13.696Z,34.79
2017-09-15T11:34:41.565Z,34.64
2017-09-15T11:37:09.158Z,34.71
2017-09-15T11:39:36.754Z,34.59
2017-09-15T11:42:04.336Z,34.74
2017-09-15T11:44:31.911Z,34.13
2017-09-15T11:46:59.533Z,34.20
2017-09-15T11:49:27.120Z,34.03
2017-09-15T11:51:54.858Z,34.26
2017-09-15T11:54:22.430Z,34.44
2017-09-15T11:56:51.034Z,34.44
2017-09-15T11:59:18.575Z,34.39
2017-09-15T12:01:47.409Z,34.53
2017-09-15T12:04:19.981Z,34.70
2017-09-15T12:06:52.383Z,34.59
2017-09-15T12:09:22.268Z,34.22
2017-09-15T12:11:49.940Z,34.31
2017-09-15T12:14:17.519Z,34.58
2017-09-15T12:16:45.353Z,34.68
2017-09-15T12:19:12.950Z,34.11
2017-09-15T12:21:41.245Z,33.94
2017-09-15T12:24:09.800Z,32.98
2017-09-15T12:26:37.384Z,33.00
2017-09-15T12:29:04.972Z,32.91
2017-09-15T12:31:32.634Z,32.99
2017-09-15T12:34:05.063Z,33.06
2017-09-15T12:36:34.130Z,33.53
2017-09-15T12:39:06.779Z,33.42
2017-09-15T12:41:36.944Z,33.47
2017-09-15T12:44:04.925Z,33.61
2017-09-15T12:46:36.845Z,33.76
2017-09-15T12:49:04.471Z,33.84
2017-09-15T12:51:34.923Z,33.91
2017-09-15T12:54:02.497Z,33.88
2017-09-15T12:56:33.067Z,33.43
2017-09-15T12:59:00.690Z,32.84
2017-09-15T13:01:28.295Z,32.91
2017-09-15T13:03:55.907Z,32.57
2017-09-15T13:06:23.566Z,32.75
2017-09-15T13:08:51.171Z,33.08
2017-09-15T13:11:18.914Z,32.88
2017-09-15T13:13:46.454Z,32.81
2017-09-15T13:16:14.036Z,32.94
2017-09-15T13:18:41.780Z,33.24
2017-09-15T13:21:09.335Z,33.17
2017-09-15T13:23:37.674Z,33.27
2017-09-15T13:26:05.222Z,33.17
2017-09-15T13:28:32.992Z,32.53
2017-09-15T13:31:00.594Z,32.53
2017-09-15T13:33:28.156Z,32.51
2017-09-15T13:35:55.748Z,32.17
2017-09-15T13:38:23.340Z,32.24
2017-09-15T13:40:50.902Z,32.31
2017-09-15T13:43:18.690Z,32.32
2017-09-15T13:45:46.326Z,32.17
2017-09-15T13:48:13.859Z,32.17
2017-09-15T13:50:41.633Z,32.03
2017-09-15T13:53:09.205Z,31.83
2017-09-15T13:55:36.983Z,31.74
2017-09-15T13:58:04.526Z,31.67
2017-09-15T14:00:32.115Z,31.61
2017-09-15T14:02:59.670Z,31.68
2017-09-15T14:05:27.252Z,31.57
2017-09-15T14:07:55.351Z,31.70
2017-09-15T14:10:24.683Z,31.77
2017-09-15T14:12:52.388Z,31.89
2017-09-15T14:15:20.031Z,31.98
2017-09-15T14:17:48.335Z,32.04
2017-09-15T14:20:16.323Z,32.05
2017-09-15T14:22:43.989Z,32.05
2017-09-15T14:25:11.523Z,31.99
2017-09-15T14:27:39.073Z,32.12
2017-09-15T14:30:07.119Z,31.93
2017-09-15T14:32:34.726Z,31.99
2017-09-15T14:35:02.589Z,31.86
2017-09-15T14:37:30.186Z,31.77
2017-09-15T14:39:57.767Z,31.60
2017-09-15T14:42:25.990Z,31.69
2017-09-15T14:44:53.617Z,31.52
2017-09-15T14:47:21.574Z,31.51
2017-09-15T14:49:49.365Z,31.50
2017-09-15T14:52:16.956Z,31.41
2017-09-15T14:54:45.509Z,31.43
2017-09-15T14:57:13.367Z,31.29
2017-09-15T14:59:41.437Z,31.27
2017-09-15T15:02:10.998Z,31.18
2017-09-15T15:04:39.030Z,31.01
2017-09-15T15:07:06.793Z,30.93
2017-09-15T15:09:34.395Z,30.86
2017-09-15T15:12:02.005Z,30.57
2017-09-15T15:14:29.867Z,30.53
2017-09-15T15:16:57.485Z,30.36
2017-09-15T15:19:25.403Z,30.48
2017-09-15T15:21:52.992Z,30.43
2017-09-15T15:24:20.578Z,30.50
2017-09-15T15:26:48.965Z,30.46
2017-09-15T15:29:16.598Z,30.31
2017-09-15T15:31:44.205Z,30.30
2017-09-15T15:34:11.842Z,30.25
2017-09-15T15:36:39.604Z,30.24
2017-09-15T15:39:07.212Z,30.09
2017-09-15T15:41:34.773Z,30.00
2017-09-15T15:44:02.713Z,29.96
2017-09-15T15:46:30.574Z,29.89
2017-09-15T15:48:58.182Z,29.87
2017-09-15T15:51:26.301Z,29.80
2017-09-15T15:53:54.122Z,29.69
2017-09-15T15:56:21.913Z,29.57
2017-09-15T15:58:49.503Z,29.56
2017-09-15T16:01:17.131Z,29.54
2017-09-15T16:03:45.090Z,29.19
2017-09-15T16:06:13.482Z,29.20
2017-09-15T16:08:41.120Z,29.24
2017-09-15T16:11:08.800Z,29.17
2017-09-15T16:13:36.856Z,29.15
2017-09-15T16:16:04.577Z,29.08
2017-09-15T16:18:33.729Z,28.96
2017-09-15T16:21:02.462Z,28.94
2017-09-15T16:23:30.793Z,28.83
2017-09-15T16:25:58.479Z,28.82
2017-09-15T16:28:26.539Z,28.85
2017-09-15T16:30:54.332Z,28.87
2017-09-15T16:33:21.983Z,28.69
2017-09-15T16:35:49.986Z,28.55
2017-09-15T16:38:23.324Z,28.46
2017-09-15T16:40:57.492Z,28.49
2017-09-15T16:43:31.534Z,28.36
2017-09-15T16:46:04.764Z,28.18
2017-09-15T16:48:38.130Z,28.07
2017-09-15T16:51:06.122Z,28.09
2017-09-15T16:53:33.702Z,28.10
2017-09-15T16:56:01.401Z,28.12
2017-09-15T16:58:29.311Z,28.09
2017-09-15T17:01:00.149Z,28.14
2017-09-15T17:03:28.069Z,28.10
2017-09-15T17:05:59.263Z,28.21
2017-09-15T17:08:27.572Z,28.19
2017-09-15T17:10:57.419Z,28.10
2017-09-15T17:13:28.835Z,28.21
2017-09-15T17:15:56.776Z,28.00
2017-09-15T17:18:24.398Z,27.90
2017-09-15T17:20:52.883Z,27.96
2017-09-15T17:23:20.466Z,28.03
2017-09-15T17:25:52.358Z,27.93
2017-09-15T17:28:20.075Z,27.98
2017-09-15T17:30:48.998Z,27.90
2017-09-15T17:33:19.410Z,27.86
2017-09-15T17:35:47.100Z,27.88
2017-09-15T17:38:14.749Z,27.97
2017-09-15T17:40:42.311Z,28.02
2017-09-15T17:43:09.903Z,28.09
2017-09-15T17:45:37.571Z,28.12
2017-09-15T17:48:06.334Z,28.22
2017-09-15T17:50:34.995Z,28.16
2017-09-15T17:53:02.642Z,28.06
2017-09-15T17:55:30.266Z,27.83
2017-09-15T17:57:58.462Z,27.73
2017-09-15T18:00:26.049Z,27.34
2017-09-15T18:02:53.685Z,27.33
2017-09-15T18:05:21.297Z,27.18
2017-09-15T18:07:48.927Z,27.11
2017-09-15T18:10:16.555Z,26.93
2017-09-15T18:12:44.117Z,26.78
2017-09-15T18:15:11.716Z,26.85
2017-09-15T18:17:39.679Z,26.46
2017-09-15T18:20:07.822Z,26.66
2017-09-15T18:22:35.399Z,26.93
2017-09-15T18:25:03.970Z,26.98
2017-09-15T18:27:31.573Z,27.02
2017-09-15T18:29:59.172Z,26.59
2017-09-15T18:32:26.770Z,26.64
2017-09-15T18:34:54.701Z,26.74
2017-09-15T18:37:22.283Z,26.77
2017-09-15T18:39:49.934Z,26.74
2017-09-15T18:42:18.498Z,26.69
2017-09-15T18:44:46.119Z,26.63
2017-09-15T18:47:13.743Z,26.58
2017-09-15T18:49:41.405Z,26.55
2017-09-15T18:52:09.069Z,26.23
2017-09-15T18:54:36.757Z,25.89
2017-09-15T18:57:04.540Z,25.60
2017-09-15T18:59:32.155Z,25.48
2017-09-15T19:01:59.831Z,25.25
2017-09-15T19:04:27.470Z,25.23
2017-09-15T19:06:55.252Z,25.03
2017-09-15T19:09:23.695Z,25.15
2017-09-15T19:11:51.332Z,25.28
2017-09-15T19:14:19.098Z,25.07
2017-09-15T19:16:46.787Z,25.16
2017-09-15T19:19:14.401Z,25.04
2017-09-15T19:21:41.982Z,25.23
2017-09-15T19:24:09.749Z,25.47
2017-09-15T19:26:38.404Z,25.70
2017-09-15T19:29:06.112Z,25.97
2017-09-15T19:31:33.756Z,25.86
2017-09-15T19:34:01.524Z,25.58
2017-09-15T19:36:29.112Z,25.55
2017-09-15T19:38:56.784Z,25.57
2017-09-15T19:41:25.426Z,25.23
2017-09-15T19:43:54.119Z,25.23
2017-09-15T19:46:23.395Z,25.34
2017-09-15T19:48:50.998Z,25.45
2017-09-15T19:51:19.238Z,25.35
2017-09-15T19:53:46.873Z,25.20
2017-09-15T19:56:15.160Z,25.34
2017-09-15T19:58:42.780Z,25.29
2017-09-15T20:01:11.049Z,25.17
2017-09-15T20:03:38.724Z,25.24
2017-09-15T20:06:06.285Z,25.18
2017-09-15T20:08:33.889Z,24.81
2017-09-15T20:11:01.512Z,24.79
2017-09-15T20:13:29.066Z,24.70
2017-09-15T20:15:56.660Z,24.63
2017-09-15T20:18:25.727Z,24.61
2017-09-15T20:20:53.313Z,24.60
2017-09-15T20:23:21.470Z,24.47
2017-09-15T20:25:49.016Z,24.54
2017-09-15T20:28:16.615Z,24.41
2017-09-15T20:30:44.238Z,24.24
2017-09-15T20:33:11.791Z,24.30
2017-09-15T20:35:39.350Z,24.29
2017-09-15T20:38:06.971Z,24.27
2017-09-15T20:40:34.544Z,24.26
2017-09-15T20:43:02.141Z,24.04
2017-09-15T20:45:29.736Z,23.99
2017-09-15T20:47:57.291Z,24.13
2017-09-15T20:50:24.912Z,24.10
2017-09-15T20:52:52.572Z,24.17
2017-09-15T20:55:20.091Z,24.17
2017-09-15T20:57:47.691Z,24.09
2017-09-15T21:00:15.397Z,24.14
2017-09-15T21:02:42.947Z,24.00
2017-09-15T21:05:10.489Z,23.90
2017-09-15T21:07:38.112Z,23.92
2017-09-15T21:10:06.242Z,23.83
2017-09-15T21:12:34.019Z,23.86
2017-09-15T21:15:01.616Z,23.94
2017-09-15T21:17:29.212Z,23.86
2017-09-15T21:19:56.819Z,23.87
2017-09-15T21:22:24.429Z,23.92
2017-09-15T21:24:52.042Z,23.84
2017-09-15T21:27:19.704Z,23.86
2017-09-15T21:29:47.335Z,23.93
2017-09-15T21:32:14.918Z,23.98
2017-09-15T21:34:42.688Z,23.92
2017-09-15T21:37:10.289Z,23.61
2017-09-15T21:39:37.882Z,23.73
2017-09-15T21:42:05.462Z,23.61
2017-09-15T21:44:33.059Z,23.74
2017-09-15T21:47:01.073Z,23.69
2017-09-15T21:49:31.134Z,23.78
2017-09-15T21:51:58.784Z,23.73
2017-09-15T21:54:26.385Z,23.71
2017-09-15T21:56:53.924Z,23.62
2017-09-15T21:59:21.470Z,23.61
2017-09-15T22:01:49.088Z,23.55
2017-09-15T22:04:39.335Z,23.52
2017-09-15T22:09:51.282Z,23.62
2017-09-15T22:12:18.869Z,23.56
2017-09-15T22:14:46.459Z,23.55
2017-09-15T22:17:14.020Z,23.59
2017-09-15T22:19:42.200Z,23.46
2017-09-15T22:22:09.791Z,23.35
2017-09-15T22:24:43.435Z,23.45
2017-09-15T22:27:20.734Z,23.18
2017-09-15T22:30:05.283Z,23.16
2017-09-15T22:32:33.017Z,23.37
2017-09-15T22:35:00.557Z,22.97
2017-09-15T22:37:28.167Z,22.82
2017-09-15T22:39:55.740Z,22.59
2017-09-15T22:42:23.551Z,22.33
2017-09-15T22:44:51.157Z,22.18
2017-09-15T22:47:18.768Z,22.22
2017-09-15T22:49:52.736Z,22.21
2017-09-15T22:52:20.864Z,22.39
2017-09-15T22:54:48.505Z,22.29
2017-09-15T22:57:16.087Z,22.12
2017-09-15T22:59:43.710Z,22.19
2017-09-15T23:02:11.297Z,22.14
2017-09-15T23:04:39.064Z,22.00
2017-09-15T23:07:06.651Z,21.95
2017-09-15T23:09:34.284Z,21.81
2017-09-15T23:12:01.912Z,21.74
2017-09-15T23:14:29.592Z,21.71
2017-09-15T23:16:57.229Z,21.59
2017-09-15T23:19:25.023Z,21.37
2017-09-15T23:21:52.915Z,21.12
2017-09-15T23:24:20.977Z,21.25
2017-09-15T23:26:48.891Z,21.07
2017-09-15T23:29:16.852Z,20.79
2017-09-15T23:31:45.113Z,20.88
2017-09-15T23:34:13.169Z,20.76
2017-09-15T23:36:40.799Z,20.56
2017-09-15T23:39:08.445Z,20.46
2017-09-15T23:41:36.496Z,20.39
2017-09-15T23:44:04.100Z,20.17
2017-09-15T23:46:31.787Z,20.08
2017-09-15T23:48:59.599Z,19.89
2017-09-15T23:51:27.457Z,19.75
2017-09-15T23:53:55.091Z,19.87
2017-09-15T23:56:22.695Z,19.66
2017-09-15T23:58:50.245Z,19.56
